Overview Statistics Trail Chart Weather Telemetry Raw packets
 

This is the latest recevied weather packets stored in our database for station/object DM8MH-13. If no packets are shown the sender has not sent any weather packets the latest 10 day(s).

<< 43 44 45 46 47 48 49 >>
Time Temp. Humidity Pressure Rain* Wind** Luminosity Snow
1787916072 26.11° C 68% 1009.4 hPa 0 mm - 51 W/m² -
1787915473 26.67° C 65% 1009.9 hPa 0 mm - 74 W/m² -
1787914872 26.67° C 65% 1009.4 hPa 0 mm - 119 W/m² -
1787914272 26.67° C 65% 1008.9 hPa 0 mm - 142 W/m² -
1787913672 26.67° C 63% 1008.7 hPa 0 mm - 183 W/m² -
1787913073 27.22° C 64% 1008.5 hPa 0 mm - 236 W/m² -
1787912472 27.22° C 63% 1008.1 hPa 0 mm - 305 W/m² -
1787911872 27.78° C 63% 1007.3 hPa 0 mm - 808 W/m² -
1787911272 27.22° C 62% 1007.5 hPa 0 mm - 286 W/m² -
1787910672 26.67° C 64% 1007.6 hPa 0 mm - 553 W/m² -
1787910072 25.56° C 71% 1007.6 hPa 0 mm - 385 W/m² -
1787909472 25° C 73% 1008 hPa 0 mm - 290 W/m² -
1787908872 24.44° C 74% 1008.2 hPa 0 mm - 261 W/m² -
1787908273 23.89° C 76% 1008.3 hPa 0 mm - 273 W/m² -
1787907672 23.33° C 77% 1008.4 hPa 0 mm - 301 W/m² -
1787907073 22.78° C 78% 1008.2 hPa 0 mm - 198 W/m² -
1787906473 22.78° C 78% 1008.7 hPa 0 mm - 105 W/m² -
1787905873 22.22° C 80% 1008.6 hPa 0 mm - 90 W/m² -
1787905272 21.67° C 81% 1008.9 hPa 0 mm - 185 W/m² -
1787904673 21.67° C 81% 1008.9 hPa 0 mm - 108 W/m² -
1787904073 21.67° C 82% 1009.1 hPa 0 mm - 102 W/m² -
1787903473 21.67° C 82% 1008.8 hPa 0 mm - 92 W/m² -
1787902872 21.67° C 82% 1008 hPa 0 mm - 106 W/m² -
1787902273 21.11° C 83% 1007.8 hPa 0 mm - 97 W/m² -
1787901672 21.11° C 83% 1008.1 hPa 0 mm - 127 W/m² -

* Rain latest hour (hover to see other rain measurements)
** Current wind speed in m/s (hover to see current wind gust speed)